Time;durP1;ratioP1;P1;durP2;ratioP2;P2;SDS_P1;SDS_P2;PMS_P1;PMS_P2;Temp;Humidity;BMP_temperature;BMP_pressure;BME280_temperature;BME280_humidity;BME280_pressure;Samples;Min_cycle;Max_cycle;Signal;HPM_P1;HPM_P2
2021/03/27 00:01:36;;;;;;;21.70;15.48;;;9.20;62.40;;;;;;5018511;28;20053;-61
2021/03/27 00:04:14;;;;;;;23.30;15.82;;;9.20;62.40;;;;;;5000022;28;20022;-61
2021/03/27 00:06:45;;;;;;;22.40;15.20;;;9.10;62.60;;;;;;5013507;28;20038;-61
2021/03/27 00:09:23;;;;;;;23.73;15.68;;;9.10;62.70;;;;;;5013123;28;20485;-60
2021/03/27 00:11:56;;;;;;;20.13;14.45;;;9.10;62.80;;;;;;5021795;28;20108;-61
2021/03/27 00:14:50;;;;;;;22.88;15.65;;;9.10;62.80;;;;;;5013664;28;20022;-61
2021/03/27 00:17:41;;;;;;;27.13;16.55;;;9.10;63.20;;;;;;5021022;28;20049;-61
2021/03/27 00:20:35;;;;;;;22.02;14.77;;;9.00;63.00;;;;;;5013535;28;20037;-61
2021/03/27 00:23:03;;;;;;;21.10;14.23;;;9.00;63.20;;;;;;5020898;28;20033;-60
2021/03/27 00:25:33;;;;;;;22.65;15.48;;;9.00;63.80;;;;;;5029742;28;20033;-61
2021/03/27 00:28:21;;;;;;;23.00;15.80;;;8.90;63.30;;;;;;5019933;28;20480;-61
2021/03/27 00:31:06;;;;;;;22.73;15.90;;;8.90;63.50;;;;;;5017814;28;20030;-61
2021/03/27 00:33:34;;;;;;;22.50;15.13;;;8.90;63.60;;;;;;5026454;28;20030;-61
2021/03/27 00:36:03;;;;;;;25.55;16.42;;;8.90;63.70;;;;;;5017172;28;20049;-61
2021/03/27 00:38:34;;;;;;;22.42;15.63;;;8.90;63.90;;;;;;5017325;28;20102;-60
2021/03/27 00:41:01;;;;;;;24.08;15.73;;;8.90;64.10;;;;;;5016508;28;20030;-61
2021/03/27 00:43:36;;;;;;;24.65;16.30;;;8.90;64.20;;;;;;5017242;28;20025;-61
2021/03/27 00:46:05;;;;;;;24.67;16.33;;;8.90;64.30;;;;;;5016718;28;20120;-61
2021/03/27 00:48:40;;;;;;;24.73;16.10;;;8.80;64.50;;;;;;5016866;28;20030;-61
2021/03/27 00:51:16;;;;;;;22.00;15.60;;;8.80;64.70;;;;;;5016508;28;20049;-61
2021/03/27 00:53:59;;;;;;;22.10;15.20;;;8.80;64.70;;;;;;5016853;28;20028;-61
2021/03/27 00:56:53;;;;;;;23.48;15.80;;;8.80;64.90;;;;;;5016805;28;20022;-60
2021/03/27 00:59:31;;;;;;;23.92;16.35;;;8.80;65.00;;;;;;5016848;28;20445;-61
2021/03/27 01:02:00;;;;;;;23.48;15.20;;;8.80;65.00;;;;;;5022190;28;20092;-61
2021/03/27 01:04:32;;;;;;;24.48;15.77;;;8.80;65.00;;;;;;5016915;28;20040;-61
2021/03/27 01:07:03;;;;;;;22.80;16.15;;;8.80;65.00;;;;;;5016573;28;20105;-61
2021/03/27 01:09:34;;;;;;;26.90;16.10;;;8.80;65.20;;;;;;5017637;28;20461;-61
2021/03/27 01:12:08;;;;;;;22.98;15.15;;;8.80;65.20;;;;;;5019887;28;20030;-61
2021/03/27 01:14:49;;;;;;;23.17;14.35;;;8.80;65.30;;;;;;5016724;28;20068;-61
2021/03/27 01:17:18;;;;;;;23.23;15.93;;;8.80;65.20;;;;;;5016617;28;20383;-61
2021/03/27 01:19:51;;;;;;;23.35;15.57;;;8.80;65.40;;;;;;5018802;28;20013;-61
2021/03/27 01:22:18;;;;;;;24.77;16.92;;;8.80;65.40;;;;;;5020199;28;20033;-61
2021/03/27 01:24:45;;;;;;;22.02;15.52;;;8.80;65.30;;;;;;5016664;28;20026;-61
2021/03/27 01:27:20;;;;;;;20.67;15.20;;;8.80;65.50;;;;;;5016566;28;20030;-61
2021/03/27 01:30:01;;;;;;;26.15;17.52;;;8.80;66.10;;;;;;5020022;28;20030;-61
2021/03/27 01:32:39;;;;;;;23.52;15.90;;;8.80;65.50;;;;;;5017569;28;20026;-61
2021/03/27 01:35:30;;;;;;;22.50;16.00;;;8.80;65.50;;;;;;5016044;28;20029;-61
2021/03/27 01:38:01;;;;;;;24.70;15.90;;;8.80;65.50;;;;;;5030316;28;20037;-61
2021/03/27 01:40:53;;;;;;;25.55;17.27;;;8.80;65.60;;;;;;5016257;28;20080;-61
2021/03/27 01:43:58;;;;;;;23.55;16.02;;;8.80;65.50;;;;;;5016005;28;20112;-61
2021/03/27 01:46:33;;;;;;;25.42;17.80;;;8.80;65.60;;;;;;5015649;28;20397;-61
2021/03/27 01:49:05;;;;;;;23.50;16.27;;;8.70;65.60;;;;;;5016887;28;20528;-61
2021/03/27 01:51:55;;;;;;;27.00;17.40;;;8.70;65.70;;;;;;5015832;28;20484;-61
2021/03/27 01:54:36;;;;;;;26.42;18.30;;;8.70;65.80;;;;;;5015824;28;20038;-61
2021/03/27 01:57:28;;;;;;;22.77;16.33;;;8.70;65.70;;;;;;5017035;28;20026;-61
2021/03/27 02:00:03;;;;;;;23.77;16.90;;;8.70;65.60;;;;;;5004675;28;20033;-61
2021/03/27 02:02:30;;;;;;;25.00;17.50;;;8.70;65.60;;;;;;5015790;28;20045;-61
2021/03/27 02:05:07;;;;;;;28.13;18.73;;;8.70;65.80;;;;;;5015708;28;20033;-61
2021/03/27 02:08:11;;;;;;;25.30;17.35;;;8.70;65.90;;;;;;5015288;28;20049;-61
2021/03/27 02:10:37;;;;;;;26.35;17.85;;;8.70;66.60;;;;;;5012166;28;20050;-61
2021/03/27 02:13:26;;;;;;;26.27;17.38;;;8.70;65.90;;;;;;5015305;28;20551;-61
2021/03/27 02:16:18;;;;;;;26.77;17.85;;;8.70;66.00;;;;;;5015272;28;20076;-60
2021/03/27 02:19:09;;;;;;;30.60;18.55;;;8.70;66.00;;;;;;5002375;28;20018;-61
2021/03/27 02:21:47;;;;;;;25.00;17.75;;;8.60;65.90;;;;;;5016866;28;20034;-61
2021/03/27 02:24:41;;;;;;;27.05;18.45;;;8.70;66.00;;;;;;5015324;28;20022;-62
2021/03/27 02:27:28;;;;;;;25.73;17.13;;;8.70;66.10;;;;;;5016962;28;20017;-61
2021/03/27 02:29:59;;;;;;;28.05;17.52;;;8.70;66.20;;;;;;5028643;28;20045;-61
2021/03/27 02:33:04;;;;;;;25.00;17.88;;;8.70;67.00;;;;;;5002243;28;20101;-61
2021/03/27 02:35:38;;;;;;;26.45;16.95;;;8.70;66.20;;;;;;5018532;28;20041;-61
2021/03/27 02:38:34;;;;;;;25.45;17.10;;;8.70;66.30;;;;;;5021279;28;20033;-61
2021/03/27 02:41:17;;;;;;;23.75;16.58;;;8.70;66.20;;;;;;5015120;28;20061;-60
2021/03/27 02:43:50;;;;;;;27.08;17.85;;;8.70;66.50;;;;;;5014788;28;20418;-61
2021/03/27 02:46:42;;;;;;;24.75;18.52;;;8.70;66.40;;;;;;5016587;28;20041;-61
2021/03/27 02:49:34;;;;;;;23.80;16.63;;;8.70;66.30;;;;;;5023568;28;20053;-61
2021/03/27 02:52:33;;;;;;;26.63;18.52;;;8.70;66.40;;;;;;5014897;28;20022;-61
2021/03/27 02:55:24;;;;;;;25.65;17.15;;;8.70;66.30;;;;;;5013777;28;20026;-61
2021/03/27 02:58:05;;;;;;;24.57;17.10;;;8.60;66.50;;;;;;5014687;28;20026;-61
2021/03/27 03:00:55;;;;;;;26.35;17.35;;;8.60;66.30;;;;;;5008034;28;20026;-61
2021/03/27 03:03:30;;;;;;;31.08;16.67;;;8.60;66.80;;;;;;5014546;28;20366;-61
2021/03/27 03:06:06;;;;;;;24.85;16.50;;;8.60;66.50;;;;;;5019227;28;20084;-61
2021/03/27 03:08:41;;;;;;;26.52;17.75;;;8.60;66.50;;;;;;5030933;28;20116;-61
2021/03/27 03:11:20;;;;;;;22.58;16.30;;;8.60;66.50;;;;;;5017948;28;20036;-61
2021/03/27 03:14:00;;;;;;;25.15;17.48;;;8.60;66.40;;;;;;5014520;28;20018;-61
2021/03/27 03:16:48;;;;;;;25.58;16.73;;;8.60;66.60;;;;;;5021499;28;20045;-61
2021/03/27 03:19:27;;;;;;;23.17;16.75;;;8.60;66.50;;;;;;5020193;28;20485;-61
2021/03/27 03:22:05;;;;;;;24.23;16.63;;;8.60;66.50;;;;;;5001510;28;20026;-61
2021/03/27 03:24:38;;;;;;;23.17;15.73;;;8.60;66.60;;;;;;5014150;28;20033;-61
2021/03/27 03:27:30;;;;;;;24.48;17.00;;;8.60;66.70;;;;;;5022944;28;20531;-61
2021/03/27 03:30:34;;;;;;;25.83;17.50;;;8.60;66.70;;;;;;5013502;28;20028;-61
2021/03/27 03:32:59;;;;;;;24.95;16.35;;;8.60;66.70;;;;;;5008564;28;20093;-60
2021/03/27 03:35:46;;;;;;;23.10;16.67;;;8.60;66.70;;;;;;5016410;28;20029;-61
2021/03/27 03:38:46;;;;;;;28.50;17.83;;;8.60;66.80;;;;;;5018490;28;20386;-60
2021/03/27 03:41:31;;;;;;;27.05;17.85;;;8.60;66.90;;;;;;5014302;28;20018;-61
2021/03/27 03:44:14;;;;;;;25.77;17.25;;;8.60;66.80;;;;;;5009351;28;20084;-61
2021/03/27 03:47:30;;;;;;;25.98;17.77;;;8.60;66.80;;;;;;5013834;28;20029;-61
2021/03/27 03:50:19;;;;;;;26.42;19.25;;;8.60;66.60;;;;;;5021192;28;20049;-59
2021/03/27 03:53:14;;;;;;;26.63;18.48;;;8.50;66.80;;;;;;5005887;28;20029;-61
2021/03/27 03:56:05;;;;;;;27.73;18.05;;;8.60;66.80;;;;;;5012687;28;20021;-61
2021/03/27 03:58:55;;;;;;;25.03;16.67;;;8.60;66.70;;;;;;5013215;28;20080;-61
2021/03/27 04:01:44;;;;;;;26.05;17.02;;;8.60;66.80;;;;;;5012884;28;20061;-62
2021/03/27 04:04:32;;;;;;;24.08;17.38;;;8.60;66.90;;;;;;5016325;28;20505;-61
2021/03/27 04:07:03;;;;;;;28.33;17.60;;;8.60;66.80;;;;;;5013812;28;20033;-62
2021/03/27 04:09:35;;;;;;;23.15;16.95;;;8.60;66.80;;;;;;5013796;28;20041;-61
2021/03/27 04:12:18;;;;;;;24.80;16.83;;;8.60;67.00;;;;;;5025431;28;20013;-61
2021/03/27 04:15:09;;;;;;;26.70;18.27;;;8.60;67.00;;;;;;5015467;28;20458;-61
2021/03/27 04:17:45;;;;;;;22.98;15.95;;;8.60;67.00;;;;;;5013968;28;20113;-61
2021/03/27 04:20:29;;;;;;;23.55;17.23;;;8.60;67.00;;;;;;5022216;28;20030;-61
2021/03/27 04:23:10;;;;;;;23.48;17.15;;;8.60;67.00;;;;;;5012913;28;20026;-61
2021/03/27 04:25:51;;;;;;;25.90;16.27;;;8.60;66.90;;;;;;5013954;28;20113;-61
2021/03/27 04:28:48;;;;;;;25.58;16.88;;;8.60;67.00;;;;;;5013375;28;20037;-61
2021/03/27 04:32:06;;;;;;;24.15;15.55;;;8.60;67.10;;;;;;5026964;28;20040;-61
2021/03/27 04:34:48;;;;;;;26.45;17.00;;;8.70;67.10;;;;;;5019617;28;20070;-61
2021/03/27 04:37:25;;;;;;;24.58;16.30;;;8.70;67.20;;;;;;5013528;28;20073;-60
2021/03/27 04:39:59;;;;;;;24.45;16.08;;;8.80;67.10;;;;;;5014974;28;20398;-60
2021/03/27 04:42:39;;;;;;;23.30;16.33;;;8.80;67.50;;;;;;5024653;28;20038;-61
2021/03/27 04:45:18;;;;;;;25.75;16.25;;;8.90;66.90;;;;;;5017115;28;20107;-61
2021/03/27 04:47:52;;;;;;;22.75;16.15;;;8.90;66.90;;;;;;5013337;28;20030;-61
2021/03/27 04:50:43;;;;;;;25.10;17.10;;;8.90;67.00;;;;;;5016112;28;20034;-61
2021/03/27 04:53:25;;;;;;;27.02;16.48;;;9.00;66.80;;;;;;5013258;28;20033;-61
2021/03/27 04:56:32;;;;;;;27.25;17.23;;;9.10;66.80;;;;;;5013096;28;20477;-59
2021/03/27 04:59:07;;;;;;;29.35;18.13;;;9.20;66.70;;;;;;5030707;28;20141;-61
2021/03/27 05:02:02;;;;;;;26.83;17.63;;;9.20;66.90;;;;;;5023666;28;20412;-61
2021/03/27 05:04:46;;;;;;;23.13;16.42;;;9.30;66.70;;;;;;5013121;28;20033;-60
2021/03/27 05:07:17;;;;;;;23.48;15.32;;;9.40;66.60;;;;;;5013158;28;20381;-61
2021/03/27 05:09:51;;;;;;;24.30;16.75;;;9.50;66.40;;;;;;5023636;28;20022;-60
2021/03/27 05:12:26;;;;;;;25.30;17.02;;;9.50;66.10;;;;;;5016843;28;20026;-61
2021/03/27 05:15:06;;;;;;;26.73;18.10;;;9.70;66.20;;;;;;5016553;28;20480;-60
2021/03/27 05:17:44;;;;;;;22.20;16.70;;;9.80;66.00;;;;;;5016637;28;20033;-60
2021/03/27 05:20:31;;;;;;;24.15;16.67;;;10.10;66.40;;;;;;5023125;28;20105;-61
2021/03/27 05:23:16;;;;;;;23.63;16.92;;;10.50;65.90;;;;;;5028380;28;20079;-61
2021/03/27 05:25:45;;;;;;;23.48;16.40;;;10.80;65.60;;;;;;5016512;28;20022;-61
2021/03/27 05:28:38;;;;;;;23.38;17.42;;;11.20;65.20;;;;;;5029406;28;20029;-60
2021/03/27 05:31:12;;;;;;;24.48;17.00;;;11.60;63.40;;;;;;5023134;28;20033;-61
2021/03/27 05:34:21;;;;;;;24.48;16.92;;;11.90;62.80;;;;;;5015965;28;20018;-59
2021/03/27 05:37:05;;;;;;;22.60;16.00;;;12.10;62.10;;;;;;5019769;28;20062;-61
2021/03/27 05:39:42;;;;;;;21.40;16.65;;;12.40;61.90;;;;;;5016064;28;20064;-61
2021/03/27 05:42:35;;;;;;;22.88;15.57;;;12.70;61.40;;;;;;5015897;28;20053;-61
2021/03/27 05:45:17;;;;;;;23.92;17.98;;;13.00;60.90;;;;;;5015983;28;20085;-61
2021/03/27 05:47:59;;;;;;;22.33;16.88;;;13.10;59.70;;;;;;5016056;28;20026;-61
2021/03/27 05:50:52;;;;;;;24.55;16.95;;;13.20;59.50;;;;;;5023577;28;20048;-61
2021/03/27 05:53:55;;;;;;;22.45;16.80;;;13.30;59.20;;;;;;5009862;28;20034;-61
2021/03/27 05:56:54;;;;;;;23.42;16.42;;;13.40;59.10;;;;;;5002779;28;20465;-61
2021/03/27 05:59:35;;;;;;;22.92;16.05;;;13.60;59.10;;;;;;5022241;28;20459;-61
2021/03/27 06:02:35;;;;;;;25.05;17.00;;;13.80;58.60;;;;;;5027077;28;20026;-60
2021/03/27 06:05:19;;;;;;;24.27;16.25;;;14.10;57.80;;;;;;5002762;28;20107;-61
2021/03/27 06:08:17;;;;;;;19.98;15.65;;;14.40;57.20;;;;;;5012532;28;20036;-61
2021/03/27 06:10:51;;;;;;;21.80;15.85;;;14.60;56.60;;;;;;5008821;28;20045;-61
2021/03/27 06:13:44;;;;;;;22.88;16.42;;;14.70;55.40;;;;;;5002285;28;20020;-61
2021/03/27 06:16:36;;;;;;;21.65;16.00;;;14.70;55.00;;;;;;5017098;28;20088;-61
2021/03/27 06:19:20;;;;;;;19.83;15.45;;;14.40;54.80;;;;;;5023480;28;20026;-61
2021/03/27 06:22:06;;;;;;;26.13;17.05;;;14.00;55.20;;;;;;5015398;28;20021;-61
2021/03/27 06:24:38;;;;;;;21.10;15.35;;;13.50;55.80;;;;;;5015272;28;20489;-61
2021/03/27 06:27:24;;;;;;;26.13;17.05;;;13.20;56.50;;;;;;5021850;28;20155;-61
2021/03/27 06:30:15;;;;;;;23.52;16.65;;;12.90;57.20;;;;;;5018673;28;20060;-61
2021/03/27 06:33:00;;;;;;;22.67;16.00;;;12.60;57.70;;;;;;5015493;28;20033;-61
2021/03/27 06:35:45;;;;;;;23.55;16.38;;;12.40;58.10;;;;;;5015512;28;20053;-61
2021/03/27 06:38:47;;;;;;;23.52;16.52;;;12.20;58.50;;;;;;5018459;28;20058;-61
2021/03/27 06:41:40;;;;;;;26.45;15.30;;;12.10;58.90;;;;;;5017650;28;20037;-61
2021/03/27 06:44:20;;;;;;;25.02;15.68;;;12.00;59.30;;;;;;5015052;28;20040;-61
2021/03/27 06:47:04;;;;;;;23.00;16.20;;;11.90;59.30;;;;;;5019696;28;20033;-61
2021/03/27 06:49:47;;;;;;;20.92;16.05;;;11.80;59.50;;;;;;5014575;28;20056;-61
2021/03/27 06:52:25;;;;;;;22.42;15.70;;;11.70;59.70;;;;;;5012033;28;20637;-61
2021/03/27 06:55:18;;;;;;;22.73;16.40;;;11.70;59.90;;;;;;5005339;28;20454;-61
2021/03/27 06:57:53;;;;;;;22.05;15.93;;;11.60;59.90;;;;;;5008040;28;20034;-61
2021/03/27 07:00:57;;;;;;;21.25;16.50;;;11.60;60.20;;;;;;5013996;28;20029;-59
2021/03/27 07:04:10;;;;;;;23.38;16.75;;;11.60;60.60;;;;;;5013729;28;20061;-61
2021/03/27 07:06:58;;;;;;;22.20;16.65;;;11.60;60.50;;;;;;5014068;28;20388;-61
2021/03/27 07:09:39;;;;;;;21.20;15.68;;;11.60;60.80;;;;;;5014498;28;20096;-61
2021/03/27 07:12:41;;;;;;;24.80;15.68;;;11.60;60.80;;;;;;5010890;28;20102;-61
2021/03/27 07:15:34;;;;;;;23.83;15.82;;;11.60;60.90;;;;;;5001781;28;20530;-61
2021/03/27 07:18:19;;;;;;;27.13;17.67;;;11.60;60.90;;;;;;5014346;28;20097;-60
2021/03/27 07:21:21;;;;;;;21.60;17.23;;;11.60;61.00;;;;;;5016959;28;20022;-59
2021/03/27 07:24:15;;;;;;;23.48;16.58;;;11.70;60.90;;;;;;5003277;28;20033;-61
2021/03/27 07:27:06;;;;;;;24.73;17.58;;;11.70;61.10;;;;;;5027089;28;20022;-61
2021/03/27 07:29:50;;;;;;;22.70;16.27;;;11.70;61.20;;;;;;5014126;28;20034;-60
2021/03/27 07:32:25;;;;;;;25.88;17.05;;;11.70;61.00;;;;;;5012998;28;20393;-61
2021/03/27 07:35:06;;;;;;;22.10;15.93;;;11.70;61.20;;;;;;5025562;28;20053;-60
2021/03/27 07:37:39;;;;;;;;;;;11.70;61.30;;;;;;5013593;28;20101;-61
2021/03/27 07:40:16;;;;;;;22.45;15.15;;;11.70;61.30;;;;;;5015858;28;19940;-60
2021/03/27 07:42:55;;;;;;;25.02;16.65;;;11.70;61.40;;;;;;5017779;28;20120;-61
2021/03/27 07:45:42;;;;;;;25.40;16.65;;;11.70;61.50;;;;;;5019573;28;20462;-61
2021/03/27 07:48:29;;;;;;;23.23;16.50;;;11.70;62.20;;;;;;5014516;28;20040;-61
2021/03/27 07:51:01;;;;;;;23.80;16.65;;;11.70;61.50;;;;;;5021656;28;20042;-60
2021/03/27 07:54:02;;;;;;;22.83;16.02;;;11.70;61.50;;;;;;5011871;28;20049;-61
2021/03/27 07:56:40;;;;;;;22.25;15.38;;;11.60;61.60;;;;;;5009401;28;20041;-61
2021/03/27 07:59:30;;;;;;;23.92;16.95;;;11.60;61.80;;;;;;5010524;28;20022;-61
2021/03/27 08:02:29;;;;;;;21.90;15.70;;;11.60;61.80;;;;;;5012546;28;20037;-61
2021/03/27 08:05:23;;;;;;;21.50;15.65;;;11.60;61.90;;;;;;5017976;28;20025;-61
2021/03/27 08:07:51;;;;;;;24.17;16.00;;;11.60;62.00;;;;;;5021486;28;20053;-63
2021/03/27 08:10:34;;;;;;;22.27;14.93;;;11.50;61.90;;;;;;5019001;28;20523;-61
2021/03/27 08:13:22;;;;;;;20.30;14.38;;;11.50;61.90;;;;;;5013142;28;20068;-62
2021/03/27 08:16:15;;;;;;;23.17;15.05;;;11.40;62.00;;;;;;5017947;28;20021;-62
2021/03/27 08:19:00;;;;;;;20.35;14.70;;;11.40;62.20;;;;;;5008671;28;20021;-61
2021/03/27 08:21:44;;;;;;;21.67;14.50;;;11.40;62.20;;;;;;5012244;28;20108;-62
2021/03/27 08:24:18;;;;;;;22.73;14.07;;;11.40;62.20;;;;;;5016455;28;20539;-61
2021/03/27 08:27:10;;;;;;;20.38;13.70;;;11.40;62.30;;;;;;5013567;28;20081;-60
2021/03/27 08:29:42;;;;;;;19.75;13.93;;;11.40;62.40;;;;;;5017364;28;20041;-62
2021/03/27 08:32:07;;;;;;;;;;;11.40;62.40;;;;;;5017145;28;20484;-61
2021/03/27 08:34:51;;;;;;;18.50;13.05;;;11.40;62.40;;;;;;5019139;28;19905;-61
2021/03/27 08:37:35;;;;;;;16.50;12.25;;;11.40;62.50;;;;;;5010666;28;20046;-61
2021/03/27 08:40:25;;;;;;;20.40;13.77;;;11.40;62.30;;;;;;5018258;28;20065;-61
2021/03/27 08:42:57;;;;;;;21.45;14.30;;;11.50;62.50;;;;;;5021220;28;20029;-60
2021/03/27 08:45:57;;;;;;;18.08;13.07;;;11.50;62.20;;;;;;5017691;28;20034;-61
2021/03/27 08:48:26;;;;;;;16.05;11.65;;;11.50;62.30;;;;;;5011974;28;20141;-61
2021/03/27 08:51:07;;;;;;;18.05;12.93;;;11.50;62.20;;;;;;5013387;28;20025;-61
2021/03/27 08:53:42;;;;;;;20.42;13.80;;;11.60;62.20;;;;;;5020290;28;20022;-61
2021/03/27 08:56:30;;;;;;;19.83;13.75;;;11.60;62.00;;;;;;5023516;28;20021;-61
2021/03/27 08:59:18;;;;;;;17.65;12.95;;;11.60;62.00;;;;;;5027288;28;20427;-61
2021/03/27 09:02:01;;;;;;;17.83;13.20;;;11.60;62.10;;;;;;5020164;28;20021;-61
2021/03/27 09:05:06;;;;;;;18.98;13.10;;;11.60;62.00;;;;;;5029013;28;20022;-61
2021/03/27 09:07:50;;;;;;;18.60;13.25;;;11.70;62.00;;;;;;5029635;28;20030;-61
2021/03/27 09:10:30;;;;;;;17.35;11.95;;;11.70;62.80;;;;;;5023562;28;20036;-60
2021/03/27 09:13:17;;;;;;;18.80;12.75;;;11.70;61.90;;;;;;5021264;28;20068;-61
2021/03/27 09:16:20;;;;;;;18.10;12.02;;;11.80;61.80;;;;;;5014906;28;20041;-61
2021/03/27 09:19:16;;;;;;;18.02;13.10;;;11.80;61.90;;;;;;5024789;28;20021;-61
2021/03/27 09:22:19;;;;;;;17.10;11.93;;;11.80;61.90;;;;;;5023574;28;20037;-61
2021/03/27 09:24:53;;;;;;;17.55;11.85;;;11.90;61.90;;;;;;5011578;28;20346;-61
2021/03/27 09:27:30;;;;;;;14.85;10.57;;;11.90;61.70;;;;;;5013285;28;20595;-61
2021/03/27 09:30:14;;;;;;;19.17;12.48;;;11.90;61.50;;;;;;5010763;28;20065;-61
2021/03/27 09:33:05;;;;;;;15.68;11.93;;;12.00;61.50;;;;;;5016831;28;20053;-61
2021/03/27 09:35:47;;;;;;;19.17;12.85;;;12.10;61.50;;;;;;5011670;28;20030;-60
2021/03/27 09:38:31;;;;;;;17.98;11.88;;;12.20;61.30;;;;;;5017714;28;20104;-61
2021/03/27 09:41:07;;;;;;;18.80;11.63;;;12.30;61.20;;;;;;5026286;28;20033;-62
2021/03/27 09:43:44;;;;;;;17.38;12.07;;;12.40;60.90;;;;;;5025402;28;20037;-61
2021/03/27 09:46:29;;;;;;;16.52;12.23;;;12.50;60.70;;;;;;5028768;28;20056;-61
2021/03/27 09:49:00;;;;;;;15.68;11.18;;;12.60;60.50;;;;;;5022717;28;20044;-62
2021/03/27 09:52:00;;;;;;;17.55;11.88;;;12.60;60.20;;;;;;5020652;28;20033;-61
2021/03/27 09:55:03;;;;;;;16.50;12.60;;;12.70;60.00;;;;;;5021085;28;20041;-60
2021/03/27 09:58:06;;;;;;;15.93;11.63;;;12.70;59.90;;;;;;5015718;28;20030;-59
2021/03/27 10:00:47;;;;;;;17.40;12.15;;;12.70;59.70;;;;;;5031844;28;20050;-61
2021/03/27 10:03:31;;;;;;;17.45;11.15;;;12.80;59.60;;;;;;5014715;28;20048;-61
2021/03/27 10:06:27;;;;;;;17.67;11.82;;;12.80;59.40;;;;;;5011187;28;20034;-61
2021/03/27 10:09:32;;;;;;;16.75;12.15;;;12.80;59.10;;;;;;5008094;28;20022;-61
2021/03/27 10:12:05;;;;;;;17.30;12.75;;;12.80;58.80;;;;;;5009967;28;20061;-60
2021/03/27 10:14:51;;;;;;;16.38;11.50;;;12.80;58.90;;;;;;5019108;28;20029;-60
2021/03/27 10:17:27;;;;;;;17.00;11.77;;;12.90;58.80;;;;;;5020771;28;20465;-61
2021/03/27 10:19:53;;;;;;;16.42;11.35;;;12.90;58.80;;;;;;5013939;28;20026;-61
2021/03/27 10:22:45;;;;;;;16.52;12.15;;;12.90;58.60;;;;;;5014587;28;20552;-61
2021/03/27 10:25:33;;;;;;;16.88;11.57;;;13.10;58.40;;;;;;5010440;28;20030;-61
2021/03/27 10:28:20;;;;;;;17.33;11.50;;;13.20;58.00;;;;;;5022330;28;20124;-61
2021/03/27 10:31:10;;;;;;;15.02;11.05;;;13.20;57.90;;;;;;5012326;28;20030;-60
2021/03/27 10:34:09;;;;;;;15.73;11.85;;;13.30;57.50;;;;;;5019886;28;20025;-61
2021/03/27 10:37:04;;;;;;;13.65;10.48;;;13.40;57.20;;;;;;5013382;28;20032;-61
2021/03/27 10:39:45;;;;;;;14.65;10.20;;;13.50;57.00;;;;;;5010786;28;20036;-60
2021/03/27 10:42:32;;;;;;;15.32;10.65;;;13.50;56.70;;;;;;5022577;28;20025;-61
2021/03/27 10:45:12;;;;;;;15.15;9.77;;;13.60;56.50;;;;;;5011049;28;20030;-61
2021/03/27 10:47:47;;;;;;;12.95;9.18;;;13.60;56.20;;;;;;5017333;28;20033;-61
2021/03/27 10:50:54;;;;;;;13.30;9.75;;;13.70;56.00;;;;;;5012595;28;20392;-61
2021/03/27 10:53:50;;;;;;;13.82;9.70;;;13.70;56.40;;;;;;5032980;28;20032;-60
2021/03/27 10:56:35;;;;;;;12.00;8.75;;;13.80;55.40;;;;;;5010717;28;20381;-61
2021/03/27 10:59:16;;;;;;;11.98;9.75;;;13.80;55.40;;;;;;5021272;28;20030;-60
2021/03/27 11:02:25;;;;;;;15.77;10.20;;;13.80;54.90;;;;;;5011781;28;20036;-60
2021/03/27 11:05:25;;;;;;;13.18;10.05;;;13.80;54.60;;;;;;5020632;28;20030;-61
2021/03/27 11:08:28;;;;;;;14.13;9.98;;;13.90;54.70;;;;;;5008501;28;20032;-61
2021/03/27 11:10:59;;;;;;;13.50;10.00;;;13.90;54.70;;;;;;5009918;28;20053;-59
2021/03/27 11:13:43;;;;;;;;;;;13.90;54.70;;;;;;5007925;28;20025;-58
2021/03/27 11:16:37;;;;;;;15.20;10.27;;;13.80;54.60;;;;;;5012452;28;19913;-59
2021/03/27 11:19:11;;;;;;;15.90;11.07;;;13.80;54.70;;;;;;5014956;28;20021;-60
2021/03/27 11:22:04;;;;;;;15.95;10.75;;;13.80;54.80;;;;;;5012379;28;20037;-61
2021/03/27 11:24:39;;;;;;;13.95;9.95;;;13.80;54.70;;;;;;5022251;28;20040;-61
2021/03/27 11:27:16;;;;;;;15.27;10.68;;;13.70;54.60;;;;;;5027956;28;20072;-61
2021/03/27 11:30:14;;;;;;;16.52;10.68;;;13.80;54.60;;;;;;5020914;28;20022;-61
2021/03/27 11:33:11;;;;;;;14.95;11.10;;;13.70;54.50;;;;;;5013099;28;20105;-61
2021/03/27 11:36:02;;;;;;;16.23;11.52;;;13.80;54.30;;;;;;5020797;28;20461;-61
2021/03/27 11:38:40;;;;;;;14.23;10.73;;;13.80;54.00;;;;;;5023079;28;20418;-61
2021/03/27 11:41:45;;;;;;;13.77;10.43;;;13.80;53.90;;;;;;5021284;28;20083;-61
2021/03/27 11:44:44;;;;;;;13.02;9.70;;;13.80;53.50;;;;;;5026279;28;20037;-61
2021/03/27 11:47:32;;;;;;;13.60;9.35;;;13.80;53.40;;;;;;5017294;28;20048;-61
2021/03/27 11:50:10;;;;;;;12.30;9.70;;;13.80;53.30;;;;;;5012370;28;20478;-61
2021/03/27 11:52:37;;;;;;;14.05;10.25;;;13.80;52.90;;;;;;5019487;28;20427;-61
2021/03/27 11:55:03;;;;;;;13.88;9.40;;;13.80;53.00;;;;;;5020576;28;20013;-61
2021/03/27 11:57:53;;;;;;;13.77;9.70;;;13.80;52.90;;;;;;5010424;28;20025;-60
2021/03/27 12:01:02;;;;;;;14.50;9.65;;;13.80;52.40;;;;;;5027933;28;20374;-61
2021/03/27 12:03:58;;;;;;;12.27;8.90;;;13.80;52.20;;;;;;5010146;28;20040;-61
2021/03/27 12:06:39;;;;;;;15.80;9.93;;;13.80;52.20;;;;;;5026451;28;20480;-61
2021/03/27 12:09:42;;;;;;;13.15;9.05;;;13.80;51.80;;;;;;5028216;28;20025;-60
2021/03/27 12:12:09;;;;;;;11.88;8.85;;;13.80;51.80;;;;;;5023784;28;20026;-61
2021/03/27 12:14:57;;;;;;;14.02;9.85;;;13.80;51.70;;;;;;5022546;28;20041;-61
2021/03/27 12:17:47;;;;;;;14.80;10.05;;;13.90;51.60;;;;;;5029858;28;20372;-61
2021/03/27 12:20:25;;;;;;;14.23;9.25;;;13.90;51.30;;;;;;5022789;28;20385;-61
2021/03/27 12:23:19;;;;;;;16.20;10.43;;;13.90;51.20;;;;;;5018311;28;20068;-61
2021/03/27 12:26:21;;;;;;;12.98;9.05;;;13.90;50.90;;;;;;5024923;28;20025;-61
2021/03/27 12:29:16;;;;;;;12.95;9.88;;;13.90;51.10;;;;;;5027083;28;20408;-61
2021/03/27 12:31:57;;;;;;;14.85;9.50;;;13.80;50.90;;;;;;5026882;28;20032;-61
2021/03/27 12:34:39;;;;;;;15.30;10.85;;;13.80;51.60;;;;;;5030025;28;20030;-60
2021/03/27 12:37:21;;;;;;;14.55;10.35;;;13.80;51.00;;;;;;5022435;28;20029;-61
2021/03/27 12:40:11;;;;;;;16.45;11.18;;;13.80;51.10;;;;;;5033193;28;20037;-61
2021/03/27 12:42:47;;;;;;;17.02;11.30;;;13.70;51.40;;;;;;5021789;28;20469;-60
2021/03/27 12:45:27;;;;;;;14.88;10.80;;;13.70;51.50;;;;;;5014261;28;20038;-61
2021/03/27 12:48:17;;;;;;;15.68;11.63;;;13.60;51.50;;;;;;5013691;28;20030;-61
2021/03/27 12:50:47;;;;;;;15.50;12.00;;;13.60;51.60;;;;;;5017092;28;20120;-62
2021/03/27 12:53:28;;;;;;;17.65;12.32;;;13.60;51.70;;;;;;5021601;28;20034;-61
2021/03/27 12:56:15;;;;;;;17.03;12.30;;;13.50;51.60;;;;;;5013510;28;20034;-61
2021/03/27 12:58:53;;;;;;;15.05;11.27;;;13.60;51.70;;;;;;5012239;28;20406;-60
2021/03/27 13:01:43;;;;;;;15.90;11.90;;;13.50;51.60;;;;;;5012804;28;20042;-59
2021/03/27 13:04:46;;;;;;;18.60;11.98;;;13.60;51.70;;;;;;5013634;28;20041;-61
2021/03/27 13:07:43;;;;;;;15.65;11.60;;;13.60;51.70;;;;;;5015064;28;20563;-61
2021/03/27 13:10:30;;;;;;;16.33;11.93;;;13.60;51.80;;;;;;5009567;28;20038;-60
2021/03/27 13:13:21;;;;;;;17.15;12.27;;;13.70;51.70;;;;;;5010895;28;20024;-60
2021/03/27 13:16:04;;;;;;;15.68;11.70;;;13.70;51.50;;;;;;5012407;28;20026;-61
2021/03/27 13:19:04;;;;;;;18.35;12.43;;;13.70;51.50;;;;;;5015946;28;20029;-61
2021/03/27 13:21:32;;;;;;;15.00;10.98;;;13.80;51.30;;;;;;5012103;28;20043;-61
2021/03/27 13:24:07;;;;;;;15.00;11.55;;;13.70;51.40;;;;;;5007371;28;20030;-61
2021/03/27 13:26:34;;;;;;;15.63;10.85;;;13.80;51.40;;;;;;5016242;28;20029;-60
2021/03/27 13:29:36;;;;;;;17.05;12.00;;;13.80;51.30;;;;;;5015815;28;20026;-61
2021/03/27 13:32:30;;;;;;;16.73;11.38;;;13.70;51.10;;;;;;5014168;28;20037;-61
2021/03/27 13:35:04;;;;;;;15.52;11.88;;;13.70;51.20;;;;;;5012263;28;20116;-60
2021/03/27 13:37:48;;;;;;;17.98;12.50;;;13.70;51.20;;;;;;5019719;28;20033;-61
2021/03/27 13:40:28;;;;;;;18.05;13.13;;;13.70;51.50;;;;;;5011277;28;20033;-61
2021/03/27 13:43:00;;;;;;;17.80;13.48;;;13.70;51.40;;;;;;5011418;28;20042;-60
2021/03/27 13:45:44;;;;;;;17.70;13.60;;;13.60;52.00;;;;;;5015796;28;20037;-61
2021/03/27 13:48:28;;;;;;;19.27;13.57;;;13.60;51.30;;;;;;5019701;28;20034;-61
2021/03/27 13:51:21;;;;;;;17.42;12.25;;;13.60;51.50;;;;;;5025539;28;20057;-62
2021/03/27 13:54:24;;;;;;;19.35;13.40;;;13.50;51.50;;;;;;5012718;28;20033;-61
2021/03/27 13:57:09;;;;;;;16.20;12.38;;;13.50;51.70;;;;;;5019607;28;20044;-61
2021/03/27 14:00:00;;;;;;;17.83;12.73;;;13.40;51.70;;;;;;5013919;28;20033;-63
2021/03/27 14:02:47;;;;;;;16.70;13.35;;;13.30;51.70;;;;;;5017787;28;20449;-61